createdAt,value
2018-12-04T00:01:52.939Z,5.40
2018-12-04T00:04:21.238Z,5.35
2018-12-04T00:06:49.524Z,5.85
2018-12-04T00:09:17.774Z,5.65
2018-12-04T00:11:46.021Z,5.70
2018-12-04T00:14:14.559Z,5.90
2018-12-04T00:16:42.997Z,5.50
2018-12-04T00:19:11.368Z,5.47
2018-12-04T00:21:39.638Z,5.60
2018-12-04T00:24:08.311Z,6.10
2018-12-04T00:26:36.643Z,5.92
2018-12-04T00:29:05.586Z,5.33
2018-12-04T00:31:34.169Z,5.03
2018-12-04T00:34:02.530Z,6.37
2018-12-04T00:36:30.742Z,5.83
2018-12-04T00:38:59.028Z,5.20
2018-12-04T00:41:27.344Z,5.25
2018-12-04T00:43:55.596Z,5.50
2018-12-04T00:46:23.766Z,4.93
2018-12-04T00:48:52.503Z,4.53
2018-12-04T00:51:20.721Z,3.90
2018-12-04T00:53:49.661Z,4.90
2018-12-04T00:56:18.075Z,5.42
2018-12-04T00:58:46.286Z,5.47
2018-12-04T01:01:14.817Z,5.15
2018-12-04T01:03:43.257Z,5.05
2018-12-04T01:06:11.824Z,5.40
2018-12-04T01:08:40.174Z,4.97
2018-12-04T01:11:08.542Z,5.25
2018-12-04T01:13:36.842Z,4.95
2018-12-04T01:16:05.557Z,4.72
2018-12-04T01:18:33.896Z,4.30
2018-12-04T01:21:02.369Z,5.40
2018-12-04T01:23:30.940Z,5.17
2018-12-04T01:25:59.378Z,5.03
2018-12-04T01:28:28.157Z,5.72
2018-12-04T01:30:56.632Z,5.35
2018-12-04T01:33:24.912Z,5.40
2018-12-04T01:35:53.179Z,4.47
2018-12-04T01:38:21.411Z,5.70
2018-12-04T01:40:49.672Z,5.22
2018-12-04T01:43:18.500Z,5.65
2018-12-04T01:45:47.265Z,5.20
2018-12-04T01:48:15.748Z,5.15
2018-12-04T01:50:44.230Z,5.20
2018-12-04T01:53:12.493Z,5.10
2018-12-04T01:55:40.761Z,4.85
2018-12-04T01:58:09.154Z,4.85
2018-12-04T02:00:37.542Z,4.50
2018-12-04T02:03:06.570Z,4.22
2018-12-04T02:05:35.385Z,4.75
2018-12-04T02:08:04.097Z,4.95
2018-12-04T02:10:32.756Z,5.60
2018-12-04T02:13:01.058Z,4.53
2018-12-04T02:15:29.311Z,4.90
2018-12-04T02:17:57.504Z,4.80
2018-12-04T02:20:25.847Z,4.87
2018-12-04T02:22:54.105Z,4.87
2018-12-04T02:25:22.514Z,4.60
2018-12-04T02:27:50.724Z,3.12
2018-12-04T02:30:18.993Z,4.15
2018-12-04T02:32:47.238Z,3.50
2018-12-04T02:52:31.647Z,4.03
2018-12-04T02:54:59.984Z,3.60
2018-12-04T02:57:28.166Z,4.00
2018-12-04T02:59:56.390Z,4.00
2018-12-04T03:02:24.597Z,4.08
2018-12-04T03:04:52.892Z,3.47
2018-12-04T03:07:21.329Z,4.70
2018-12-04T03:09:49.550Z,4.70
2018-12-04T03:12:17.849Z,5.47
2018-12-04T03:14:46.051Z,4.30
2018-12-04T03:17:14.359Z,5.65
2018-12-04T03:19:42.574Z,4.60
2018-12-04T03:22:10.967Z,4.00
2018-12-04T03:24:39.265Z,3.90
2018-12-04T03:27:07.522Z,3.83
2018-12-04T03:29:35.833Z,4.00
2018-12-04T03:32:04.264Z,2.90
2018-12-04T03:34:32.523Z,2.80
2018-12-04T03:37:00.876Z,2.00
2018-12-04T03:39:29.116Z,1.35
2018-12-04T03:41:57.427Z,1.50
2018-12-04T03:44:26.770Z,1.30
2018-12-04T03:46:55.165Z,1.35
2018-12-04T03:49:23.434Z,1.00
2018-12-04T03:51:51.697Z,1.20
2018-12-04T03:54:20.017Z,1.12
2018-12-04T03:56:48.363Z,1.30
2018-12-04T03:59:16.638Z,1.33
2018-12-04T04:01:44.843Z,1.50
2018-12-04T04:04:13.116Z,1.30
2018-12-04T04:06:41.433Z,1.30
2018-12-04T04:09:09.913Z,1.55
2018-12-04T04:11:38.190Z,1.87
2018-12-04T04:14:06.590Z,1.57
2018-12-04T04:16:34.850Z,1.40
2018-12-04T04:19:03.187Z,1.50
2018-12-04T04:21:31.374Z,1.50
2018-12-04T04:23:59.638Z,1.60
2018-12-04T04:26:27.998Z,1.50
2018-12-04T04:28:56.250Z,1.50
2018-12-04T04:31:24.503Z,1.50
2018-12-04T04:33:52.814Z,1.82
2018-12-04T04:36:21.088Z,1.55
2018-12-04T04:38:49.397Z,1.40
2018-12-04T04:41:17.677Z,2.20
2018-12-04T04:43:45.936Z,1.80
2018-12-04T04:46:14.568Z,1.73
2018-12-04T04:48:43.000Z,1.40
2018-12-04T04:51:11.225Z,2.10
2018-12-04T04:53:39.560Z,2.47
2018-12-04T04:56:07.873Z,2.02
2018-12-04T04:58:36.340Z,1.95
2018-12-04T05:01:04.577Z,2.20
2018-12-04T05:03:32.952Z,2.80
2018-12-04T05:06:01.161Z,2.12
2018-12-04T05:08:29.548Z,2.60
2018-12-04T05:10:57.755Z,2.33
2018-12-04T05:13:25.973Z,2.25
2018-12-04T05:15:54.211Z,2.00
2018-12-04T05:18:22.532Z,2.50
2018-12-04T05:20:50.931Z,2.10
2018-12-04T05:23:19.274Z,2.10
2018-12-04T05:25:47.597Z,2.40
2018-12-04T05:28:15.881Z,2.40
2018-12-04T05:30:44.147Z,2.47
2018-12-04T05:33:12.367Z,2.50
2018-12-04T05:35:40.731Z,3.25
2018-12-04T05:38:08.961Z,2.50
2018-12-04T05:40:37.241Z,2.25
2018-12-04T05:43:05.462Z,2.40
2018-12-04T05:45:34.612Z,2.52
2018-12-04T05:48:05.100Z,3.40
2018-12-04T05:50:33.613Z,3.20
2018-12-04T05:53:13.273Z,3.37
2018-12-04T05:55:41.487Z,3.50
2018-12-04T05:58:09.723Z,3.40
2018-12-04T06:00:38.154Z,3.40
2018-12-04T06:03:06.712Z,3.22
2018-12-04T06:05:35.130Z,4.28
2018-12-04T06:08:03.342Z,3.30
2018-12-04T06:10:31.731Z,3.67
2018-12-04T06:13:00.102Z,3.42
2018-12-04T06:15:29.295Z,2.90
2018-12-04T06:17:57.754Z,3.60
2018-12-04T06:20:26.413Z,3.20
2018-12-04T06:22:54.776Z,3.58
2018-12-04T06:25:23.255Z,3.35
2018-12-04T06:27:51.761Z,3.10
2018-12-04T06:30:20.011Z,2.93
2018-12-04T06:32:48.362Z,2.72
2018-12-04T06:35:17.100Z,2.60
2018-12-04T06:37:45.395Z,3.50
2018-12-04T06:40:13.786Z,3.05
2018-12-04T06:42:42.063Z,3.77
2018-12-04T06:45:10.498Z,3.35
2018-12-04T06:47:38.965Z,3.30
2018-12-04T06:50:09.610Z,3.83
2018-12-04T06:52:37.990Z,3.35
2018-12-04T06:55:07.361Z,3.70
2018-12-04T06:57:35.765Z,3.67
2018-12-04T07:00:05.005Z,2.40
2018-12-04T07:02:33.272Z,3.30
2018-12-04T07:05:01.594Z,2.58
2018-12-04T07:07:30.006Z,3.52
2018-12-04T07:09:58.331Z,2.80
2018-12-04T07:12:26.560Z,2.83
2018-12-04T07:14:54.940Z,2.92
2018-12-04T07:17:23.169Z,3.15
2018-12-04T07:19:51.479Z,2.67
2018-12-04T07:22:19.717Z,3.22
2018-12-04T07:24:47.965Z,2.90
2018-12-04T07:27:16.264Z,3.27
2018-12-04T07:29:44.478Z,3.67
2018-12-04T07:32:12.772Z,3.33
2018-12-04T07:34:41.095Z,3.60
2018-12-04T07:37:09.446Z,3.20
2018-12-04T07:39:37.710Z,3.60
2018-12-04T07:42:06.189Z,3.62
2018-12-04T07:44:34.658Z,3.35
2018-12-04T07:47:03.012Z,3.65
2018-12-04T07:49:31.325Z,4.50
2018-12-04T07:51:59.636Z,3.17
2018-12-04T07:54:27.850Z,4.08
2018-12-04T07:56:56.058Z,3.20
2018-12-04T07:59:24.744Z,3.70
2018-12-04T08:01:53.156Z,3.20
2018-12-04T08:04:21.471Z,3.50
2018-12-04T08:06:49.784Z,3.47
2018-12-04T08:09:18.030Z,3.30
2018-12-04T08:11:46.356Z,4.42
2018-12-04T08:14:14.637Z,3.87
2018-12-04T08:16:42.907Z,3.50
2018-12-04T08:19:11.330Z,4.22
2018-12-04T08:21:39.767Z,3.67
2018-12-04T08:24:08.120Z,4.17
2018-12-04T08:26:37.322Z,4.55
2018-12-04T08:29:05.655Z,4.45
2018-12-04T08:31:33.855Z,4.50
2018-12-04T08:34:02.197Z,4.07
2018-12-04T08:36:30.489Z,3.80
2018-12-04T08:38:58.882Z,3.55
2018-12-04T08:41:27.300Z,3.15
2018-12-04T08:43:55.658Z,3.35
2018-12-04T08:46:23.996Z,3.17
2018-12-04T08:48:52.285Z,3.50
2018-12-04T08:51:20.646Z,3.62
2018-12-04T08:53:48.917Z,3.40
2018-12-04T08:56:17.213Z,3.37
2018-12-04T08:58:45.493Z,3.50
2018-12-04T09:01:13.856Z,2.90
2018-12-04T09:03:42.393Z,3.85
2018-12-04T09:06:12.058Z,3.85
2018-12-04T09:08:42.977Z,3.10
2018-12-04T09:11:12.334Z,3.50
2018-12-04T09:13:43.652Z,3.52
2018-12-04T09:16:14.313Z,3.50
2018-12-04T09:18:44.647Z,3.85
2018-12-04T09:21:14.453Z,4.08
2018-12-04T09:23:42.821Z,3.60
2018-12-04T09:26:11.260Z,3.80
2018-12-04T09:28:39.740Z,2.77
2018-12-04T09:31:08.089Z,3.80
2018-12-04T09:33:36.553Z,3.37
2018-12-04T09:36:04.901Z,3.75
2018-12-04T09:38:33.221Z,4.20
2018-12-04T09:41:01.594Z,4.10
2018-12-04T09:43:29.993Z,3.67
2018-12-04T09:45:58.377Z,3.87
2018-12-04T09:48:26.685Z,3.30
2018-12-04T09:50:55.041Z,3.00
2018-12-04T09:53:25.340Z,3.60
2018-12-04T09:55:53.652Z,2.90
2018-12-04T09:58:22.038Z,3.50
2018-12-04T10:00:50.401Z,3.52
2018-12-04T10:03:18.749Z,4.08
2018-12-04T10:05:46.980Z,3.65
2018-12-04T10:08:15.330Z,2.98
2018-12-04T10:10:43.632Z,3.00
2018-12-04T10:13:11.799Z,3.15
2018-12-04T10:15:40.175Z,4.12
2018-12-04T10:18:08.409Z,3.40
2018-12-04T10:20:36.777Z,3.30
2018-12-04T10:23:05.120Z,4.30
2018-12-04T10:25:33.434Z,3.80
2018-12-04T10:28:01.776Z,3.20
2018-12-04T10:30:30.111Z,3.30
2018-12-04T10:32:58.383Z,2.40
2018-12-04T10:35:26.663Z,2.90
2018-12-04T10:37:54.880Z,3.15
2018-12-04T10:40:23.169Z,2.50
2018-12-04T10:42:51.425Z,2.90
2018-12-04T10:45:19.830Z,3.58
2018-12-04T10:47:48.023Z,3.65
2018-12-04T10:50:16.313Z,3.20
2018-12-04T10:52:44.613Z,2.22
2018-12-04T10:55:12.888Z,3.10
2018-12-04T10:57:41.225Z,3.00
2018-12-04T11:00:14.215Z,2.93
2018-12-04T11:02:47.165Z,2.40
2018-12-04T11:05:15.379Z,3.20
2018-12-04T11:07:43.743Z,3.62
2018-12-04T11:10:12.151Z,2.90
2018-12-04T11:12:40.538Z,2.50
2018-12-04T11:15:09.044Z,2.45
2018-12-04T11:17:37.349Z,3.45
2018-12-04T11:20:07.784Z,2.92
2018-12-04T11:22:36.100Z,3.08
2018-12-04T11:25:05.356Z,2.80
2018-12-04T11:27:33.677Z,3.40
2018-12-04T11:30:01.999Z,2.37
2018-12-04T11:32:30.296Z,3.12
2018-12-04T11:34:58.770Z,2.42
2018-12-04T11:37:26.960Z,2.92
2018-12-04T11:39:55.297Z,3.35
2018-12-04T11:42:23.561Z,3.05
2018-12-04T11:44:51.895Z,3.25
2018-12-04T11:47:20.077Z,3.10
2018-12-04T11:49:48.399Z,3.20
2018-12-04T11:52:16.762Z,3.17
2018-12-04T11:54:45.003Z,2.72
2018-12-04T11:57:13.338Z,3.20
2018-12-04T11:59:41.709Z,3.22
2018-12-04T12:02:10.909Z,2.70
2018-12-04T12:04:39.778Z,2.90
2018-12-04T12:08:37.327Z,2.30
2018-12-04T12:11:05.758Z,3.20
2018-12-04T12:13:34.054Z,2.62
2018-12-04T12:16:02.430Z,2.50
2018-12-04T12:18:30.698Z,2.33
2018-12-04T12:20:59.017Z,2.40
2018-12-04T12:23:27.212Z,3.90
2018-12-04T12:25:55.592Z,2.90
2018-12-04T12:28:23.982Z,3.52
2018-12-04T12:30:52.359Z,3.10
2018-12-04T12:33:20.591Z,2.67
2018-12-04T12:35:48.942Z,2.22
2018-12-04T12:38:17.370Z,2.62
2018-12-04T12:40:45.662Z,3.30
2018-12-04T12:43:13.997Z,2.40
2018-12-04T12:45:42.220Z,2.70
2018-12-04T12:48:10.483Z,2.35
2018-12-04T12:50:38.858Z,3.20
2018-12-04T12:53:07.609Z,3.02
2018-12-04T12:55:35.827Z,3.10
2018-12-04T12:58:04.134Z,3.30
2018-12-04T13:00:32.512Z,2.52
2018-12-04T13:03:00.854Z,3.08
2018-12-04T13:05:29.119Z,3.33
2018-12-04T13:07:57.322Z,3.47
2018-12-04T13:10:25.606Z,3.17
2018-12-04T13:12:53.878Z,3.52
2018-12-04T13:15:22.135Z,3.30
2018-12-04T13:17:50.755Z,3.80
2018-12-04T13:20:19.060Z,2.50
2018-12-04T13:22:47.457Z,2.70
2018-12-04T13:25:15.821Z,2.50
2018-12-04T13:27:44.082Z,3.20
2018-12-04T13:30:12.574Z,3.22
2018-12-04T13:32:40.877Z,3.55
2018-12-04T13:35:09.355Z,2.80
2018-12-04T13:37:37.879Z,2.83
2018-12-04T13:40:08.737Z,3.17
2018-12-04T13:42:37.043Z,3.00
2018-12-04T13:45:06.306Z,2.50
2018-12-04T13:47:34.790Z,2.70
2018-12-04T13:50:03.432Z,1.82
2018-12-04T13:52:31.779Z,2.90
2018-12-04T13:55:00.165Z,2.67
2018-12-04T13:57:28.537Z,2.90
2018-12-04T13:59:56.984Z,3.33
2018-12-04T14:02:25.275Z,2.50
2018-12-04T14:04:53.667Z,2.72
2018-12-04T14:07:21.958Z,2.20
2018-12-04T14:09:50.342Z,3.00
2018-12-04T14:12:18.809Z,3.50
2018-12-04T14:14:47.196Z,2.70
2018-12-04T14:17:15.620Z,2.72
2018-12-04T14:19:44.231Z,2.33
2018-12-04T14:22:16.132Z,2.20
2018-12-04T14:24:42.921Z,2.87
2018-12-04T14:27:11.282Z,3.50
2018-12-04T14:29:40.085Z,3.10
2018-12-04T14:32:08.696Z,3.10
2018-12-04T14:34:37.002Z,2.50
2018-12-04T14:37:05.830Z,2.30
2018-12-04T14:39:34.206Z,2.77
2018-12-04T14:42:02.546Z,3.20
2018-12-04T14:44:30.893Z,2.40
2018-12-04T14:46:59.312Z,2.45
2018-12-04T14:49:27.681Z,2.20
2018-12-04T14:51:56.352Z,2.10
2018-12-04T14:54:24.774Z,3.02
2018-12-04T14:56:53.262Z,2.80
2018-12-04T14:59:21.890Z,2.67
2018-12-04T15:01:50.174Z,3.20
2018-12-04T15:04:18.642Z,2.62
2018-12-04T15:06:46.999Z,2.35
2018-12-04T15:09:15.568Z,2.80
2018-12-04T15:11:44.043Z,1.95
2018-12-04T15:14:12.458Z,3.25
2018-12-04T15:16:40.823Z,2.20
2018-12-04T15:19:09.598Z,3.50
2018-12-04T15:21:37.993Z,2.33
2018-12-04T15:24:06.307Z,2.80
2018-12-04T15:26:36.857Z,3.42
2018-12-04T15:29:05.279Z,3.25
2018-12-04T15:31:34.008Z,3.30
2018-12-04T15:34:02.740Z,3.30
2018-12-04T15:36:31.212Z,3.85
2018-12-04T15:38:59.617Z,2.47
2018-12-04T15:41:28.170Z,3.20
2018-12-04T15:43:56.546Z,2.72
2018-12-04T15:46:24.952Z,3.15
2018-12-04T15:48:53.531Z,3.90
2018-12-04T15:51:21.916Z,3.10
2018-12-04T15:53:50.218Z,3.27
2018-12-04T15:56:18.844Z,3.45
2018-12-04T15:58:47.165Z,2.50
2018-12-04T16:01:15.580Z,3.60
2018-12-04T16:03:44.056Z,2.62
2018-12-04T16:06:12.550Z,2.60
2018-12-04T16:08:41.081Z,3.47
2018-12-04T16:11:09.367Z,3.65
2018-12-04T16:13:37.595Z,2.60
2018-12-04T16:16:06.564Z,3.10
2018-12-04T16:18:35.664Z,3.35
2018-12-04T16:21:04.018Z,3.27
2018-12-04T16:23:32.305Z,2.40
2018-12-04T16:26:00.625Z,3.10
2018-12-04T16:28:29.289Z,3.12
2018-12-04T16:30:58.063Z,2.70
2018-12-04T16:33:26.471Z,3.20
2018-12-04T16:35:54.922Z,3.20
2018-12-04T16:38:23.187Z,3.40
2018-12-04T16:40:51.517Z,3.70
2018-12-04T16:43:19.903Z,3.25
2018-12-04T16:45:48.290Z,3.00
2018-12-04T16:48:18.207Z,3.10
2018-12-04T16:50:46.627Z,2.85
2018-12-04T16:53:15.059Z,3.40
2018-12-04T16:55:43.313Z,3.33
2018-12-04T16:58:11.688Z,3.95
2018-12-04T17:00:39.995Z,2.83
2018-12-04T17:03:08.277Z,2.83
2018-12-04T17:05:36.669Z,2.90
2018-12-04T17:08:05.006Z,3.17
2018-12-04T17:10:33.348Z,3.17
2018-12-04T17:13:01.755Z,3.00
2018-12-04T17:15:30.190Z,3.50
2018-12-04T17:17:58.538Z,3.00
2018-12-04T17:20:26.924Z,3.25
2018-12-04T17:22:55.141Z,3.20
2018-12-04T17:25:23.380Z,2.67
2018-12-04T17:27:51.752Z,3.60
2018-12-04T17:30:20.253Z,3.20
2018-12-04T17:32:49.209Z,2.05
2018-12-04T17:35:17.754Z,3.52
2018-12-04T17:37:46.787Z,2.67
2018-12-04T17:40:15.084Z,3.10
2018-12-04T17:42:43.571Z,3.20
2018-12-04T17:45:11.867Z,4.20
2018-12-04T17:47:40.197Z,3.65
2018-12-04T17:50:10.170Z,2.60
2018-12-04T17:52:38.562Z,3.22
2018-12-04T17:55:07.611Z,2.65
2018-12-04T17:57:36.473Z,2.60
2018-12-04T18:00:05.661Z,3.22
2018-12-04T18:02:33.890Z,2.90
2018-12-04T18:05:02.486Z,3.85
2018-12-04T18:07:30.983Z,3.00
2018-12-04T18:09:59.474Z,3.85
2018-12-04T18:12:30.552Z,2.20
2018-12-04T18:14:59.285Z,3.90
2018-12-04T18:17:27.542Z,2.75
2018-12-04T18:19:55.899Z,3.47
2018-12-04T18:22:24.380Z,2.77
2018-12-04T18:24:52.580Z,3.47
2018-12-04T18:27:21.051Z,3.20
2018-12-04T18:29:49.503Z,2.62
2018-12-04T18:32:17.882Z,2.87
2018-12-04T18:34:46.147Z,3.52
2018-12-04T18:37:14.967Z,3.40
2018-12-04T18:39:43.342Z,2.60
2018-12-04T18:42:13.222Z,2.80
2018-12-04T18:44:41.722Z,2.58
2018-12-04T18:47:10.103Z,3.17
2018-12-04T18:49:38.806Z,3.60
2018-12-04T18:52:08.073Z,3.05
2018-12-04T18:54:36.827Z,3.42
2018-12-04T18:57:05.328Z,2.55
2018-12-04T18:59:33.595Z,2.80
2018-12-04T19:02:02.215Z,3.37
2018-12-04T19:04:30.645Z,3.67
2018-12-04T19:06:59.164Z,2.87
2018-12-04T19:09:27.964Z,3.27
2018-12-04T19:11:56.364Z,3.00
2018-12-04T19:31:40.868Z,2.70
2018-12-04T19:34:09.585Z,2.30
2018-12-04T19:36:37.960Z,3.08
2018-12-04T19:39:08.723Z,2.98
2018-12-04T19:41:37.199Z,3.70
2018-12-04T19:44:05.964Z,3.47
2018-12-04T19:46:34.689Z,2.80
2018-12-04T19:49:03.208Z,3.30
2018-12-04T19:51:31.622Z,3.17
2018-12-04T19:54:00.666Z,2.47
2018-12-04T19:56:29.084Z,2.60
2018-12-04T19:58:57.646Z,2.83
2018-12-04T20:01:27.046Z,2.85
2018-12-04T20:03:55.764Z,3.85
2018-12-04T20:06:24.289Z,2.83
2018-12-04T20:08:55.722Z,3.20
2018-12-04T20:11:24.184Z,3.75
2018-12-04T20:31:09.367Z,3.00
2018-12-04T20:33:37.851Z,2.87
2018-12-04T20:36:08.581Z,3.50
2018-12-04T20:38:37.152Z,3.30
2018-12-04T20:41:05.603Z,2.90
2018-12-04T20:43:34.515Z,3.30
2018-12-04T20:46:05.996Z,3.22
2018-12-04T20:48:34.660Z,3.10
2018-12-04T20:51:03.800Z,3.50
2018-12-04T20:53:32.206Z,2.85
2018-12-04T20:56:00.678Z,2.90
2018-12-04T20:58:29.186Z,3.10
2018-12-04T21:00:58.212Z,3.22
2018-12-04T21:03:26.812Z,3.70
2018-12-04T21:05:55.522Z,2.30
2018-12-04T21:08:24.181Z,2.50
2018-12-04T21:10:52.785Z,3.05
2018-12-04T21:13:21.364Z,2.80
2018-12-04T21:15:49.726Z,3.08
2018-12-04T21:18:18.376Z,1.92
2018-12-04T21:20:47.081Z,2.90
2018-12-04T21:23:15.855Z,3.20
2018-12-04T21:25:45.194Z,2.70
2018-12-04T21:28:19.343Z,3.25
2018-12-04T21:31:52.069Z,3.17
2018-12-04T21:38:41.009Z,3.47
2018-12-04T21:41:14.697Z,3.30
2018-12-04T21:44:49.515Z,3.50
2018-12-04T21:47:24.761Z,2.10
2018-12-04T21:49:54.214Z,2.63
2018-12-04T21:52:23.831Z,2.30
2018-12-04T22:12:09.715Z,2.65
2018-12-04T22:14:38.465Z,2.40
2018-12-04T22:17:07.008Z,2.87
2018-12-04T22:19:35.684Z,3.02
2018-12-04T22:22:04.133Z,2.87
2018-12-04T22:24:32.619Z,2.90
2018-12-04T22:27:00.967Z,2.30
2018-12-04T22:29:29.350Z,3.60
2018-12-04T22:31:57.919Z,2.52
2018-12-04T22:34:26.311Z,2.50
2018-12-04T22:36:54.618Z,2.50
2018-12-04T22:39:23.039Z,3.10
2018-12-04T22:41:51.390Z,2.70
2018-12-04T22:44:19.798Z,2.40
2018-12-04T22:46:48.273Z,3.62
2018-12-04T22:49:16.542Z,4.35
2018-12-04T22:51:44.939Z,2.60
2018-12-04T22:54:13.700Z,2.55
2018-12-04T22:56:42.104Z,2.83
2018-12-04T22:59:10.564Z,2.60
2018-12-04T23:01:40.650Z,3.10
2018-12-04T23:04:09.245Z,2.52
2018-12-04T23:06:37.907Z,1.98
2018-12-04T23:09:09.668Z,2.40
2018-12-04T23:11:38.568Z,3.42
2018-12-04T23:14:07.643Z,2.70
2018-12-04T23:16:36.102Z,2.50
2018-12-04T23:19:04.554Z,3.00
2018-12-04T23:21:33.242Z,3.10
2018-12-04T23:24:02.612Z,1.85
2018-12-04T23:26:31.375Z,2.30
2018-12-04T23:29:00.215Z,2.80
2018-12-04T23:31:28.695Z,2.30
2018-12-04T23:33:57.033Z,2.73
2018-12-04T23:36:25.448Z,2.50
2018-12-04T23:38:53.872Z,3.12
2018-12-04T23:41:22.278Z,2.83
2018-12-04T23:43:50.600Z,3.00
2018-12-04T23:46:18.955Z,3.10
2018-12-04T23:48:47.429Z,2.65
2018-12-04T23:51:15.772Z,2.80
2018-12-04T23:53:44.297Z,2.50
2018-12-04T23:56:12.615Z,3.22
2018-12-04T23:58:41.013Z,2.40
